Terminal Aerodrome Forecast
Issued by NWS Quad Cities IA IL

Home | Current Version | Previous Version | Text Only | Print | Product List | Glossary On
Versions: 1 2 3 4 5 6 7 8 9 10 11 12 13 14 15 16 17 18 19 20
331
FTUS43 KDVN 102328
TAFDBQ
TAF
KDBQ 102328Z 1100/1124 32008KT P6SM SCT022 OVC110
     FM110800 24004KT P6SM OVC060
     FM111800 30016G24KT P6SM OVC030 PROB30 1118/1121 5SM -SN
      OVC020=

USA.gov is the U.S. government's official web portal to all federal, state and local government web resources and services.